sensor_id;sensor_type;location;lat;lon;timestamp;P1;durP1;ratioP1;P2;durP2;ratioP2
50605;SDS011;36557;53.572;10.170;2022-11-04T00:01:30;8.25;;;2.65;;
50605;SDS011;36557;53.572;10.170;2022-11-04T00:03:56;5.50;;;2.30;;
50605;SDS011;36557;53.572;10.170;2022-11-04T00:06:22;8.32;;;2.80;;
50605;SDS011;36557;53.572;10.170;2022-11-04T00:08:52;9.73;;;2.75;;
50605;SDS011;36557;53.572;10.170;2022-11-04T00:11:20;7.22;;;2.55;;
50605;SDS011;36557;53.572;10.170;2022-11-04T00:16:41;8.00;;;2.65;;
50605;SDS011;36557;53.572;10.170;2022-11-04T00:19:25;5.97;;;2.50;;
50605;SDS011;36557;53.572;10.170;2022-11-04T00:21:51;5.95;;;2.45;;
50605;SDS011;36557;53.572;10.170;2022-11-04T00:24:37;7.85;;;2.17;;
50605;SDS011;36557;53.572;10.170;2022-11-04T00:27:21;6.03;;;2.72;;
50605;SDS011;36557;53.572;10.170;2022-11-04T00:30:06;7.78;;;2.55;;
50605;SDS011;36557;53.572;10.170;2022-11-04T00:32:33;7.57;;;2.20;;
50605;SDS011;36557;53.572;10.170;2022-11-04T00:35:18;5.82;;;2.42;;
50605;SDS011;36557;53.572;10.170;2022-11-04T00:37:44;4.53;;;2.30;;
50605;SDS011;36557;53.572;10.170;2022-11-04T00:40:11;6.30;;;2.17;;
50605;SDS011;36557;53.572;10.170;2022-11-04T00:42:38;6.43;;;2.95;;
50605;SDS011;36557;53.572;10.170;2022-11-04T00:45:05;6.05;;;2.33;;
50605;SDS011;36557;53.572;10.170;2022-11-04T00:47:31;4.05;;;2.10;;
50605;SDS011;36557;53.572;10.170;2022-11-04T00:49:57;3.35;;;2.15;;
50605;SDS011;36557;53.572;10.170;2022-11-04T00:52:23;5.05;;;2.17;;
50605;SDS011;36557;53.572;10.170;2022-11-04T00:54:48;5.80;;;2.30;;
50605;SDS011;36557;53.572;10.170;2022-11-04T00:57:14;6.03;;;2.40;;
50605;SDS011;36557;53.572;10.170;2022-11-04T00:59:40;7.57;;;2.50;;
50605;SDS011;36557;53.572;10.170;2022-11-04T01:02:06;4.38;;;2.40;;
50605;SDS011;36557;53.572;10.170;2022-11-04T01:04:33;5.63;;;2.60;;
50605;SDS011;36557;53.572;10.170;2022-11-04T01:06:59;6.53;;;2.60;;
50605;SDS011;36557;53.572;10.170;2022-11-04T01:09:26;5.70;;;2.72;;
50605;SDS011;36557;53.572;10.170;2022-11-04T01:11:52;6.07;;;2.50;;
50605;SDS011;36557;53.572;10.170;2022-11-04T01:14:17;4.82;;;2.78;;
50605;SDS011;36557;53.572;10.170;2022-11-04T01:16:44;6.80;;;3.38;;
50605;SDS011;36557;53.572;10.170;2022-11-04T01:19:10;6.05;;;2.65;;
50605;SDS011;36557;53.572;10.170;2022-11-04T01:21:36;6.88;;;2.53;;
50605;SDS011;36557;53.572;10.170;2022-11-04T01:24:01;4.55;;;2.80;;
50605;SDS011;36557;53.572;10.170;2022-11-04T01:26:28;7.72;;;3.47;;
50605;SDS011;36557;53.572;10.170;2022-11-04T01:28:54;7.32;;;2.70;;
50605;SDS011;36557;53.572;10.170;2022-11-04T01:31:22;5.65;;;2.50;;
50605;SDS011;36557;53.572;10.170;2022-11-04T01:33:50;7.43;;;2.70;;
50605;SDS011;36557;53.572;10.170;2022-11-04T01:36:17;3.90;;;2.40;;
50605;SDS011;36557;53.572;10.170;2022-11-04T01:38:42;3.92;;;2.50;;
50605;SDS011;36557;53.572;10.170;2022-11-04T01:41:10;8.32;;;2.42;;
50605;SDS011;36557;53.572;10.170;2022-11-04T01:43:48;6.47;;;2.38;;
50605;SDS011;36557;53.572;10.170;2022-11-04T01:52:06;5.00;;;2.58;;
50605;SDS011;36557;53.572;10.170;2022-11-04T01:54:38;6.20;;;2.50;;
50605;SDS011;36557;53.572;10.170;2022-11-04T01:57:07;6.72;;;2.40;;
50605;SDS011;36557;53.572;10.170;2022-11-04T01:59:41;5.15;;;2.75;;
50605;SDS011;36557;53.572;10.170;2022-11-04T02:02:07;6.07;;;2.10;;
50605;SDS011;36557;53.572;10.170;2022-11-04T02:04:33;8.40;;;2.88;;
50605;SDS011;36557;53.572;10.170;2022-11-04T02:07:01;8.13;;;2.63;;
50605;SDS011;36557;53.572;10.170;2022-11-04T02:09:30;4.88;;;2.30;;
50605;SDS011;36557;53.572;10.170;2022-11-04T02:11:57;5.60;;;2.70;;
50605;SDS011;36557;53.572;10.170;2022-11-04T02:14:42;8.30;;;2.80;;
50605;SDS011;36557;53.572;10.170;2022-11-04T02:25:47;5.47;;;2.40;;
50605;SDS011;36557;53.572;10.170;2022-11-04T02:36:42;6.38;;;3.15;;
50605;SDS011;36557;53.572;10.170;2022-11-04T02:45:16;7.28;;;3.45;;
50605;SDS011;36557;53.572;10.170;2022-11-04T02:48:11;6.97;;;2.72;;
50605;SDS011;36557;53.572;10.170;2022-11-04T02:53:28;7.07;;;2.85;;
50605;SDS011;36557;53.572;10.170;2022-11-04T02:55:56;4.80;;;2.55;;
50605;SDS011;36557;53.572;10.170;2022-11-04T02:58:26;9.13;;;2.83;;
50605;SDS011;36557;53.572;10.170;2022-11-04T03:00:58;5.72;;;2.83;;
50605;SDS011;36557;53.572;10.170;2022-11-04T03:03:31;7.15;;;3.20;;
50605;SDS011;36557;53.572;10.170;2022-11-04T03:06:01;8.15;;;2.80;;
50605;SDS011;36557;53.572;10.170;2022-11-04T03:08:33;4.95;;;2.65;;
50605;SDS011;36557;53.572;10.170;2022-11-04T03:11:06;6.72;;;3.00;;
50605;SDS011;36557;53.572;10.170;2022-11-04T03:13:58;6.32;;;3.05;;
50605;SDS011;36557;53.572;10.170;2022-11-04T03:16:38;9.18;;;2.85;;
50605;SDS011;36557;53.572;10.170;2022-11-04T03:19:24;6.20;;;2.70;;
50605;SDS011;36557;53.572;10.170;2022-11-04T03:21:57;4.07;;;2.83;;
50605;SDS011;36557;53.572;10.170;2022-11-04T03:24:43;5.80;;;2.80;;
50605;SDS011;36557;53.572;10.170;2022-11-04T03:29:53;8.18;;;2.80;;
50605;SDS011;36557;53.572;10.170;2022-11-04T03:32:23;5.10;;;3.00;;
50605;SDS011;36557;53.572;10.170;2022-11-04T03:34:52;7.18;;;3.17;;
50605;SDS011;36557;53.572;10.170;2022-11-04T03:37:18;5.65;;;2.67;;
50605;SDS011;36557;53.572;10.170;2022-11-04T03:39:44;6.60;;;3.05;;
50605;SDS011;36557;53.572;10.170;2022-11-04T03:42:10;5.57;;;3.20;;
50605;SDS011;36557;53.572;10.170;2022-11-04T03:44:54;6.78;;;2.67;;
50605;SDS011;36557;53.572;10.170;2022-11-04T03:47:22;7.15;;;3.58;;
50605;SDS011;36557;53.572;10.170;2022-11-04T03:49:50;6.07;;;2.80;;
50605;SDS011;36557;53.572;10.170;2022-11-04T03:52:19;7.45;;;3.42;;
50605;SDS011;36557;53.572;10.170;2022-11-04T03:54:45;7.22;;;3.05;;
50605;SDS011;36557;53.572;10.170;2022-11-04T03:59:58;5.90;;;3.00;;
50605;SDS011;36557;53.572;10.170;2022-11-04T04:02:27;6.13;;;2.85;;
50605;SDS011;36557;53.572;10.170;2022-11-04T04:05:22;5.05;;;2.78;;
50605;SDS011;36557;53.572;10.170;2022-11-04T04:14:12;6.22;;;3.25;;
50605;SDS011;36557;53.572;10.170;2022-11-04T04:16:16;5.30;;;3.03;;
50605;SDS011;36557;53.572;10.170;2022-11-04T04:19:12;5.60;;;3.15;;
50605;SDS011;36557;53.572;10.170;2022-11-04T04:24:15;5.97;;;3.30;;
50605;SDS011;36557;53.572;10.170;2022-11-04T04:27:02;4.50;;;3.28;;
50605;SDS011;36557;53.572;10.170;2022-11-04T04:29:46;6.53;;;3.65;;
50605;SDS011;36557;53.572;10.170;2022-11-04T04:32:14;6.00;;;3.45;;
50605;SDS011;36557;53.572;10.170;2022-11-04T04:34:40;6.43;;;3.30;;
50605;SDS011;36557;53.572;10.170;2022-11-04T04:39:45;7.25;;;3.28;;
50605;SDS011;36557;53.572;10.170;2022-11-04T04:42:32;5.18;;;3.20;;
50605;SDS011;36557;53.572;10.170;2022-11-04T04:45:19;4.97;;;3.45;;
50605;SDS011;36557;53.572;10.170;2022-11-04T04:47:47;4.97;;;3.20;;
50605;SDS011;36557;53.572;10.170;2022-11-04T04:50:14;6.10;;;3.13;;
50605;SDS011;36557;53.572;10.170;2022-11-04T04:52:43;5.85;;;3.20;;
50605;SDS011;36557;53.572;10.170;2022-11-04T04:55:11;6.53;;;3.08;;
50605;SDS011;36557;53.572;10.170;2022-11-04T04:57:37;6.82;;;3.30;;
50605;SDS011;36557;53.572;10.170;2022-11-04T05:00:03;5.80;;;3.13;;
50605;SDS011;36557;53.572;10.170;2022-11-04T05:02:31;4.90;;;2.65;;
50605;SDS011;36557;53.572;10.170;2022-11-04T05:04:57;4.63;;;2.70;;
50605;SDS011;36557;53.572;10.170;2022-11-04T05:07:23;6.20;;;3.17;;
50605;SDS011;36557;53.572;10.170;2022-11-04T05:09:49;3.83;;;2.50;;
50605;SDS011;36557;53.572;10.170;2022-11-04T05:12:15;5.75;;;2.83;;
50605;SDS011;36557;53.572;10.170;2022-11-04T05:14:41;4.38;;;2.30;;
50605;SDS011;36557;53.572;10.170;2022-11-04T05:17:07;4.53;;;2.50;;
50605;SDS011;36557;53.572;10.170;2022-11-04T05:19:33;4.30;;;2.28;;
50605;SDS011;36557;53.572;10.170;2022-11-04T05:21:58;4.78;;;1.95;;
50605;SDS011;36557;53.572;10.170;2022-11-04T05:24:24;3.10;;;1.90;;
50605;SDS011;36557;53.572;10.170;2022-11-04T05:26:50;5.25;;;1.90;;
50605;SDS011;36557;53.572;10.170;2022-11-04T05:29:15;4.93;;;2.00;;
50605;SDS011;36557;53.572;10.170;2022-11-04T05:31:41;1.90;;;1.42;;
50605;SDS011;36557;53.572;10.170;2022-11-04T05:34:09;4.07;;;1.70;;
50605;SDS011;36557;53.572;10.170;2022-11-04T05:36:35;3.45;;;1.80;;
50605;SDS011;36557;53.572;10.170;2022-11-04T05:39:01;3.58;;;1.98;;
50605;SDS011;36557;53.572;10.170;2022-11-04T05:41:27;3.97;;;1.60;;
50605;SDS011;36557;53.572;10.170;2022-11-04T05:43:54;3.33;;;1.48;;
50605;SDS011;36557;53.572;10.170;2022-11-04T05:46:22;2.20;;;1.38;;
50605;SDS011;36557;53.572;10.170;2022-11-04T05:48:48;2.67;;;1.38;;
50605;SDS011;36557;53.572;10.170;2022-11-04T05:51:18;2.08;;;1.40;;
50605;SDS011;36557;53.572;10.170;2022-11-04T05:53:46;2.33;;;1.65;;
50605;SDS011;36557;53.572;10.170;2022-11-04T05:56:13;2.60;;;1.60;;
50605;SDS011;36557;53.572;10.170;2022-11-04T05:58:39;3.08;;;1.50;;
50605;SDS011;36557;53.572;10.170;2022-11-04T06:01:11;1.90;;;1.67;;
50605;SDS011;36557;53.572;10.170;2022-11-04T06:03:56;2.03;;;1.52;;
50605;SDS011;36557;53.572;10.170;2022-11-04T06:06:23;2.13;;;1.27;;
50605;SDS011;36557;53.572;10.170;2022-11-04T06:08:51;2.33;;;1.30;;
50605;SDS011;36557;53.572;10.170;2022-11-04T06:11:17;2.70;;;1.42;;
50605;SDS011;36557;53.572;10.170;2022-11-04T06:13:44;2.72;;;1.70;;
50605;SDS011;36557;53.572;10.170;2022-11-04T06:16:09;1.50;;;1.23;;
50605;SDS011;36557;53.572;10.170;2022-11-04T06:18:35;2.53;;;1.33;;
50605;SDS011;36557;53.572;10.170;2022-11-04T06:21:08;3.25;;;1.58;;
50605;SDS011;36557;53.572;10.170;2022-11-04T06:23:44;2.30;;;1.33;;
50605;SDS011;36557;53.572;10.170;2022-11-04T06:26:10;3.45;;;1.23;;
50605;SDS011;36557;53.572;10.170;2022-11-04T06:28:37;6.82;;;2.45;;
50605;SDS011;36557;53.572;10.170;2022-11-04T06:31:06;3.05;;;1.63;;
50605;SDS011;36557;53.572;10.170;2022-11-04T06:33:34;2.22;;;1.40;;
50605;SDS011;36557;53.572;10.170;2022-11-04T06:36:00;3.45;;;1.40;;
50605;SDS011;36557;53.572;10.170;2022-11-04T06:38:28;1.75;;;1.30;;
50605;SDS011;36557;53.572;10.170;2022-11-04T06:40:56;2.72;;;1.48;;
50605;SDS011;36557;53.572;10.170;2022-11-04T06:43:21;6.22;;;3.10;;
50605;SDS011;36557;53.572;10.170;2022-11-04T06:46:05;4.18;;;1.83;;
50605;SDS011;36557;53.572;10.170;2022-11-04T06:48:47;3.45;;;2.05;;
50605;SDS011;36557;53.572;10.170;2022-11-04T06:51:13;4.72;;;1.92;;
50605;SDS011;36557;53.572;10.170;2022-11-04T06:53:38;3.05;;;2.25;;
50605;SDS011;36557;53.572;10.170;2022-11-04T06:56:04;3.40;;;1.80;;
50605;SDS011;36557;53.572;10.170;2022-11-04T06:58:30;3.47;;;1.92;;
50605;SDS011;36557;53.572;10.170;2022-11-04T07:00:56;2.38;;;1.67;;
50605;SDS011;36557;53.572;10.170;2022-11-04T07:03:22;3.00;;;1.75;;
50605;SDS011;36557;53.572;10.170;2022-11-04T07:05:47;3.67;;;1.92;;
50605;SDS011;36557;53.572;10.170;2022-11-04T07:08:13;3.40;;;1.80;;
50605;SDS011;36557;53.572;10.170;2022-11-04T07:10:39;3.25;;;1.63;;
50605;SDS011;36557;53.572;10.170;2022-11-04T07:13:05;2.92;;;1.90;;
50605;SDS011;36557;53.572;10.170;2022-11-04T07:15:30;2.00;;;1.77;;
50605;SDS011;36557;53.572;10.170;2022-11-04T07:17:57;3.28;;;2.30;;
50605;SDS011;36557;53.572;10.170;2022-11-04T07:20:23;2.67;;;1.95;;
50605;SDS011;36557;53.572;10.170;2022-11-04T07:22:49;2.55;;;1.90;;
50605;SDS011;36557;53.572;10.170;2022-11-04T07:25:17;3.17;;;2.13;;
50605;SDS011;36557;53.572;10.170;2022-11-04T07:27:43;3.35;;;2.10;;
50605;SDS011;36557;53.572;10.170;2022-11-04T07:30:09;3.00;;;2.20;;
50605;SDS011;36557;53.572;10.170;2022-11-04T07:32:35;3.72;;;2.38;;
50605;SDS011;36557;53.572;10.170;2022-11-04T07:35:01;3.47;;;2.20;;
50605;SDS011;36557;53.572;10.170;2022-11-04T07:37:26;4.70;;;2.58;;
50605;SDS011;36557;53.572;10.170;2022-11-04T07:39:52;2.80;;;2.17;;
50605;SDS011;36557;53.572;10.170;2022-11-04T07:42:18;4.47;;;2.45;;
50605;SDS011;36557;53.572;10.170;2022-11-04T07:44:45;5.75;;;2.80;;
50605;SDS011;36557;53.572;10.170;2022-11-04T07:47:11;4.47;;;2.38;;
50605;SDS011;36557;53.572;10.170;2022-11-04T07:49:37;3.33;;;2.50;;
50605;SDS011;36557;53.572;10.170;2022-11-04T07:52:02;6.30;;;3.00;;
50605;SDS011;36557;53.572;10.170;2022-11-04T07:54:28;3.53;;;2.65;;
50605;SDS011;36557;53.572;10.170;2022-11-04T07:56:54;4.25;;;2.80;;
50605;SDS011;36557;53.572;10.170;2022-11-04T07:59:19;5.07;;;3.10;;
50605;SDS011;36557;53.572;10.170;2022-11-04T08:01:45;3.38;;;3.00;;
50605;SDS011;36557;53.572;10.170;2022-11-04T08:04:11;4.03;;;2.88;;
50605;SDS011;36557;53.572;10.170;2022-11-04T08:06:36;4.72;;;3.20;;
50605;SDS011;36557;53.572;10.170;2022-11-04T08:09:02;5.97;;;2.85;;
50605;SDS011;36557;53.572;10.170;2022-11-04T08:11:28;4.30;;;3.00;;
50605;SDS011;36557;53.572;10.170;2022-11-04T08:13:54;6.15;;;3.33;;
50605;SDS011;36557;53.572;10.170;2022-11-04T08:16:21;3.45;;;2.92;;
50605;SDS011;36557;53.572;10.170;2022-11-04T08:18:49;4.85;;;3.33;;
50605;SDS011;36557;53.572;10.170;2022-11-04T08:21:19;4.90;;;3.60;;
50605;SDS011;36557;53.572;10.170;2022-11-04T08:23:46;5.95;;;3.03;;
50605;SDS011;36557;53.572;10.170;2022-11-04T08:26:16;4.13;;;2.78;;
50605;SDS011;36557;53.572;10.170;2022-11-04T08:28:43;3.50;;;2.83;;
50605;SDS011;36557;53.572;10.170;2022-11-04T08:31:10;5.80;;;3.08;;
50605;SDS011;36557;53.572;10.170;2022-11-04T08:33:39;3.28;;;2.85;;
50605;SDS011;36557;53.572;10.170;2022-11-04T08:36:07;4.97;;;3.20;;
50605;SDS011;36557;53.572;10.170;2022-11-04T08:38:47;6.60;;;2.83;;
50605;SDS011;36557;53.572;10.170;2022-11-04T08:41:14;10.18;;;5.53;;
50605;SDS011;36557;53.572;10.170;2022-11-04T08:43:41;10.35;;;3.70;;
50605;SDS011;36557;53.572;10.170;2022-11-04T08:46:07;5.72;;;3.58;;
50605;SDS011;36557;53.572;10.170;2022-11-04T08:48:34;3.60;;;2.70;;
50605;SDS011;36557;53.572;10.170;2022-11-04T08:51:01;6.32;;;4.03;;
50605;SDS011;36557;53.572;10.170;2022-11-04T08:53:28;8.25;;;4.65;;
50605;SDS011;36557;53.572;10.170;2022-11-04T08:55:53;4.65;;;3.30;;
50605;SDS011;36557;53.572;10.170;2022-11-04T08:58:19;7.07;;;3.97;;
50605;SDS011;36557;53.572;10.170;2022-11-04T09:00:46;6.35;;;3.28;;
50605;SDS011;36557;53.572;10.170;2022-11-04T09:03:11;3.97;;;3.17;;
50605;SDS011;36557;53.572;10.170;2022-11-04T09:05:38;3.97;;;3.10;;
50605;SDS011;36557;53.572;10.170;2022-11-04T09:08:15;5.10;;;3.85;;
50605;SDS011;36557;53.572;10.170;2022-11-04T09:10:42;4.97;;;3.25;;
50605;SDS011;36557;53.572;10.170;2022-11-04T09:13:09;3.63;;;3.00;;
50605;SDS011;36557;53.572;10.170;2022-11-04T09:15:36;4.63;;;3.28;;
50605;SDS011;36557;53.572;10.170;2022-11-04T09:18:02;6.57;;;3.30;;
50605;SDS011;36557;53.572;10.170;2022-11-04T09:20:28;3.28;;;2.75;;
50605;SDS011;36557;53.572;10.170;2022-11-04T09:22:55;3.60;;;2.88;;
50605;SDS011;36557;53.572;10.170;2022-11-04T09:25:21;3.95;;;2.85;;
50605;SDS011;36557;53.572;10.170;2022-11-04T09:27:47;6.18;;;2.42;;
50605;SDS011;36557;53.572;10.170;2022-11-04T09:30:13;3.90;;;2.70;;
50605;SDS011;36557;53.572;10.170;2022-11-04T09:32:39;3.35;;;2.72;;
50605;SDS011;36557;53.572;10.170;2022-11-04T09:35:05;4.63;;;2.55;;
50605;SDS011;36557;53.572;10.170;2022-11-04T09:37:31;3.88;;;2.72;;
50605;SDS011;36557;53.572;10.170;2022-11-04T09:39:57;4.90;;;2.30;;
50605;SDS011;36557;53.572;10.170;2022-11-04T09:45:01;2.75;;;1.98;;
50605;SDS011;36557;53.572;10.170;2022-11-04T09:47:33;3.42;;;2.47;;
50605;SDS011;36557;53.572;10.170;2022-11-04T09:50:00;3.05;;;2.20;;
50605;SDS011;36557;53.572;10.170;2022-11-04T09:52:29;3.80;;;2.33;;
50605;SDS011;36557;53.572;10.170;2022-11-04T09:57:30;3.83;;;1.90;;
50605;SDS011;36557;53.572;10.170;2022-11-04T09:59:57;2.53;;;1.70;;
50605;SDS011;36557;53.572;10.170;2022-11-04T10:05:20;2.15;;;1.60;;
50605;SDS011;36557;53.572;10.170;2022-11-04T10:07:55;2.30;;;1.50;;
50605;SDS011;36557;53.572;10.170;2022-11-04T10:10:44;2.58;;;1.63;;
50605;SDS011;36557;53.572;10.170;2022-11-04T10:21:43;2.53;;;1.80;;
50605;SDS011;36557;53.572;10.170;2022-11-04T10:24:17;1.95;;;1.60;;
50605;SDS011;36557;53.572;10.170;2022-11-04T10:26:45;4.65;;;1.85;;
50605;SDS011;36557;53.572;10.170;2022-11-04T10:29:16;3.10;;;1.55;;
50605;SDS011;36557;53.572;10.170;2022-11-04T10:31:53;1.70;;;1.60;;
50605;SDS011;36557;53.572;10.170;2022-11-04T10:34:30;4.10;;;1.80;;
50605;SDS011;36557;53.572;10.170;2022-11-04T10:37:01;2.22;;;1.83;;
50605;SDS011;36557;53.572;10.170;2022-11-04T10:39:29;2.63;;;1.90;;
50605;SDS011;36557;53.572;10.170;2022-11-04T10:41:58;4.93;;;2.08;;
50605;SDS011;36557;53.572;10.170;2022-11-04T10:44:25;1.92;;;1.65;;
50605;SDS011;36557;53.572;10.170;2022-11-04T10:52:47;4.80;;;1.98;;
50605;SDS011;36557;53.572;10.170;2022-11-04T10:55:25;5.32;;;2.20;;
50605;SDS011;36557;53.572;10.170;2022-11-04T10:57:56;2.45;;;1.88;;
50605;SDS011;36557;53.572;10.170;2022-11-04T11:00:37;3.00;;;1.88;;
50605;SDS011;36557;53.572;10.170;2022-11-04T11:03:26;3.15;;;2.05;;
50605;SDS011;36557;53.572;10.170;2022-11-04T11:06:10;3.65;;;2.13;;
50605;SDS011;36557;53.572;10.170;2022-11-04T11:08:45;4.47;;;2.00;;
50605;SDS011;36557;53.572;10.170;2022-11-04T11:11:11;4.50;;;2.15;;
50605;SDS011;36557;53.572;10.170;2022-11-04T11:13:40;3.83;;;1.92;;
50605;SDS011;36557;53.572;10.170;2022-11-04T11:16:12;2.75;;;1.77;;
50605;SDS011;36557;53.572;10.170;2022-11-04T11:18:45;3.33;;;1.80;;
50605;SDS011;36557;53.572;10.170;2022-11-04T11:22:17;2.90;;;1.50;;
50605;SDS011;36557;53.572;10.170;2022-11-04T11:24:28;4.05;;;1.55;;
50605;SDS011;36557;53.572;10.170;2022-11-04T11:26:59;4.15;;;1.77;;
50605;SDS011;36557;53.572;10.170;2022-11-04T11:29:30;3.08;;;1.63;;
50605;SDS011;36557;53.572;10.170;2022-11-04T11:32:04;2.25;;;1.50;;
50605;SDS011;36557;53.572;10.170;2022-11-04T11:34:41;2.83;;;1.50;;
50605;SDS011;36557;53.572;10.170;2022-11-04T11:37:19;3.53;;;1.40;;
50605;SDS011;36557;53.572;10.170;2022-11-04T11:39:49;3.60;;;1.70;;
50605;SDS011;36557;53.572;10.170;2022-11-04T11:42:15;2.40;;;1.42;;
50605;SDS011;36557;53.572;10.170;2022-11-04T11:44:50;2.03;;;1.40;;
50605;SDS011;36557;53.572;10.170;2022-11-04T11:49:46;2.72;;;1.15;;
50605;SDS011;36557;53.572;10.170;2022-11-04T11:52:37;1.90;;;0.90;;
50605;SDS011;36557;53.572;10.170;2022-11-04T11:55:20;2.58;;;1.10;;
50605;SDS011;36557;53.572;10.170;2022-11-04T12:00:57;2.30;;;0.90;;
50605;SDS011;36557;53.572;10.170;2022-11-04T12:03:43;1.52;;;0.80;;
50605;SDS011;36557;53.572;10.170;2022-11-04T12:06:22;2.53;;;1.02;;
50605;SDS011;36557;53.572;10.170;2022-11-04T12:17:52;3.17;;;0.77;;
50605;SDS011;36557;53.572;10.170;2022-11-04T12:28:49;2.20;;;0.63;;
50605;SDS011;36557;53.572;10.170;2022-11-04T12:31:45;2.28;;;0.77;;
50605;SDS011;36557;53.572;10.170;2022-11-04T12:35:02;2.10;;;0.90;;
50605;SDS011;36557;53.572;10.170;2022-11-04T12:37:44;4.88;;;0.70;;
50605;SDS011;36557;53.572;10.170;2022-11-04T12:40:27;3.47;;;0.75;;
50605;SDS011;36557;53.572;10.170;2022-11-04T12:49:07;2.63;;;0.70;;
50605;SDS011;36557;53.572;10.170;2022-11-04T12:57:07;4.85;;;0.80;;
50605;SDS011;36557;53.572;10.170;2022-11-04T12:59:51;4.57;;;0.77;;
50605;SDS011;36557;53.572;10.170;2022-11-04T13:02:27;3.80;;;0.68;;
50605;SDS011;36557;53.572;10.170;2022-11-04T13:05:04;2.72;;;0.70;;
50605;SDS011;36557;53.572;10.170;2022-11-04T13:07:39;3.13;;;0.60;;
50605;SDS011;36557;53.572;10.170;2022-11-04T13:10:16;4.57;;;0.60;;
50605;SDS011;36557;53.572;10.170;2022-11-04T13:12:46;3.78;;;1.25;;
50605;SDS011;36557;53.572;10.170;2022-11-04T13:15:17;4.38;;;0.60;;
50605;SDS011;36557;53.572;10.170;2022-11-04T13:17:48;2.53;;;0.80;;
50605;SDS011;36557;53.572;10.170;2022-11-04T13:22:48;4.28;;;0.82;;
50605;SDS011;36557;53.572;10.170;2022-11-04T13:27:59;1.92;;;0.50;;
50605;SDS011;36557;53.572;10.170;2022-11-04T13:33:06;5.63;;;2.40;;
50605;SDS011;36557;53.572;10.170;2022-11-04T13:38:38;6.00;;;1.55;;
50605;SDS011;36557;53.572;10.170;2022-11-04T13:41:15;4.85;;;1.20;;
50605;SDS011;36557;53.572;10.170;2022-11-04T13:43:50;7.22;;;2.70;;
50605;SDS011;36557;53.572;10.170;2022-11-04T13:46:20;2.17;;;0.98;;
50605;SDS011;36557;53.572;10.170;2022-11-04T13:51:44;4.72;;;1.08;;
50605;SDS011;36557;53.572;10.170;2022-11-04T13:54:57;3.63;;;0.98;;
50605;SDS011;36557;53.572;10.170;2022-11-04T13:59:30;5.18;;;0.93;;
50605;SDS011;36557;53.572;10.170;2022-11-04T14:04:43;5.22;;;1.00;;
50605;SDS011;36557;53.572;10.170;2022-11-04T14:07:11;3.28;;;1.20;;
50605;SDS011;36557;53.572;10.170;2022-11-04T14:14:38;5.53;;;0.90;;
50605;SDS011;36557;53.572;10.170;2022-11-04T14:20:21;2.88;;;0.73;;
50605;SDS011;36557;53.572;10.170;2022-11-04T14:22:49;2.75;;;0.60;;
50605;SDS011;36557;53.572;10.170;2022-11-04T14:25:29;4.90;;;0.98;;
50605;SDS011;36557;53.572;10.170;2022-11-04T14:30:51;7.45;;;1.80;;
50605;SDS011;36557;53.572;10.170;2022-11-04T14:33:38;6.32;;;2.30;;
50605;SDS011;36557;53.572;10.170;2022-11-04T14:36:15;5.13;;;1.58;;
50605;SDS011;36557;53.572;10.170;2022-11-04T14:39:19;1.80;;;0.80;;
50605;SDS011;36557;53.572;10.170;2022-11-04T14:46:39;3.88;;;0.80;;
50605;SDS011;36557;53.572;10.170;2022-11-04T14:49:11;2.13;;;0.75;;
50605;SDS011;36557;53.572;10.170;2022-11-04T14:57:29;3.00;;;0.80;;
50605;SDS011;36557;53.572;10.170;2022-11-04T15:02:57;2.97;;;0.60;;
50605;SDS011;36557;53.572;10.170;2022-11-04T15:05:47;3.13;;;1.00;;
50605;SDS011;36557;53.572;10.170;2022-11-04T15:11:00;2.95;;;0.60;;
50605;SDS011;36557;53.572;10.170;2022-11-04T15:13:48;2.70;;;0.90;;
50605;SDS011;36557;53.572;10.170;2022-11-04T15:16:25;3.67;;;0.90;;
50605;SDS011;36557;53.572;10.170;2022-11-04T15:18:54;3.20;;;0.90;;
50605;SDS011;36557;53.572;10.170;2022-11-04T15:21:22;9.60;;;3.65;;
50605;SDS011;36557;53.572;10.170;2022-11-04T15:23:49;4.75;;;2.15;;
50605;SDS011;36557;53.572;10.170;2022-11-04T15:26:29;3.55;;;1.48;;
50605;SDS011;36557;53.572;10.170;2022-11-04T15:29:01;5.47;;;1.48;;
50605;SDS011;36557;53.572;10.170;2022-11-04T15:31:32;3.05;;;0.82;;
50605;SDS011;36557;53.572;10.170;2022-11-04T15:34:01;3.45;;;0.90;;
50605;SDS011;36557;53.572;10.170;2022-11-04T15:36:35;5.47;;;1.00;;
50605;SDS011;36557;53.572;10.170;2022-11-04T15:41:54;2.25;;;0.90;;
50605;SDS011;36557;53.572;10.170;2022-11-04T15:44:51;4.40;;;1.15;;
50605;SDS011;36557;53.572;10.170;2022-11-04T15:47:22;3.40;;;0.98;;
50605;SDS011;36557;53.572;10.170;2022-11-04T15:49:53;2.70;;;1.00;;
50605;SDS011;36557;53.572;10.170;2022-11-04T15:52:27;3.73;;;0.80;;
50605;SDS011;36557;53.572;10.170;2022-11-04T15:54:57;2.38;;;1.05;;
50605;SDS011;36557;53.572;10.170;2022-11-04T16:00:07;2.65;;;1.27;;
50605;SDS011;36557;53.572;10.170;2022-11-04T16:02:44;5.75;;;2.08;;
50605;SDS011;36557;53.572;10.170;2022-11-04T16:07:47;9.07;;;3.60;;
50605;SDS011;36557;53.572;10.170;2022-11-04T16:10:33;11.45;;;3.42;;
50605;SDS011;36557;53.572;10.170;2022-11-04T16:15:40;10.15;;;3.88;;
50605;SDS011;36557;53.572;10.170;2022-11-04T16:18:20;6.57;;;3.30;;
50605;SDS011;36557;53.572;10.170;2022-11-04T16:20:50;6.85;;;2.50;;
50605;SDS011;36557;53.572;10.170;2022-11-04T16:23:19;6.95;;;2.08;;
50605;SDS011;36557;53.572;10.170;2022-11-04T16:25:53;4.45;;;1.88;;
50605;SDS011;36557;53.572;10.170;2022-11-04T16:28:32;6.32;;;2.08;;
50605;SDS011;36557;53.572;10.170;2022-11-04T16:31:02;33.10;;;11.23;;
50605;SDS011;36557;53.572;10.170;2022-11-04T16:33:32;25.85;;;11.13;;
50605;SDS011;36557;53.572;10.170;2022-11-04T16:35:58;16.35;;;7.10;;
50605;SDS011;36557;53.572;10.170;2022-11-04T16:38:24;7.43;;;2.35;;
50605;SDS011;36557;53.572;10.170;2022-11-04T16:40:50;3.10;;;1.83;;
50605;SDS011;36557;53.572;10.170;2022-11-04T16:43:17;5.93;;;2.00;;
50605;SDS011;36557;53.572;10.170;2022-11-04T16:45:47;6.00;;;1.77;;
50605;SDS011;36557;53.572;10.170;2022-11-04T16:48:17;8.27;;;2.22;;
50605;SDS011;36557;53.572;10.170;2022-11-04T16:50:44;6.05;;;2.10;;
50605;SDS011;36557;53.572;10.170;2022-11-04T16:53:10;5.22;;;2.10;;
50605;SDS011;36557;53.572;10.170;2022-11-04T16:55:41;4.75;;;2.05;;
50605;SDS011;36557;53.572;10.170;2022-11-04T16:58:17;6.00;;;2.53;;
50605;SDS011;36557;53.572;10.170;2022-11-04T17:00:43;6.47;;;2.45;;
50605;SDS011;36557;53.572;10.170;2022-11-04T17:03:15;7.82;;;2.17;;
50605;SDS011;36557;53.572;10.170;2022-11-04T17:05:45;8.07;;;2.40;;
50605;SDS011;36557;53.572;10.170;2022-11-04T17:08:14;8.60;;;2.35;;
50605;SDS011;36557;53.572;10.170;2022-11-04T17:10:40;7.03;;;2.45;;
50605;SDS011;36557;53.572;10.170;2022-11-04T17:13:08;7.35;;;2.53;;
50605;SDS011;36557;53.572;10.170;2022-11-04T17:15:34;5.30;;;2.00;;
50605;SDS011;36557;53.572;10.170;2022-11-04T17:18:00;5.60;;;2.30;;
50605;SDS011;36557;53.572;10.170;2022-11-04T17:20:25;8.77;;;2.63;;
50605;SDS011;36557;53.572;10.170;2022-11-04T17:22:51;10.10;;;2.88;;
50605;SDS011;36557;53.572;10.170;2022-11-04T17:25:21;10.60;;;2.83;;
50605;SDS011;36557;53.572;10.170;2022-11-04T17:27:49;6.13;;;2.47;;
50605;SDS011;36557;53.572;10.170;2022-11-04T17:30:15;7.30;;;2.97;;
50605;SDS011;36557;53.572;10.170;2022-11-04T17:32:42;6.55;;;2.95;;
50605;SDS011;36557;53.572;10.170;2022-11-04T17:35:09;7.05;;;2.83;;
50605;SDS011;36557;53.572;10.170;2022-11-04T17:37:35;8.13;;;2.90;;
50605;SDS011;36557;53.572;10.170;2022-11-04T17:40:01;5.70;;;2.65;;